Time;durP1;ratioP1;P1;durP2;ratioP2;P2;SDS_P1;SDS_P2;PMS_P1;PMS_P2;Temp;Humidity;BMP_temperature;BMP_pressure;BME280_temperature;BME280_humidity;BME280_pressure;Samples;Min_cycle;Max_cycle;Signal;HPM_P1;HPM_P2
2023/06/29 00:01:07;;;;;;;4.30;2.70;;;;;;;;;;5066078;28;20358;-57
2023/06/29 00:03:32;;;;;;;5.60;3.22;;;;;;;;;;5065675;22;20588;-58
2023/06/29 00:05:58;;;;;;;4.67;3.20;;;;;;;;;;5047391;28;20106;-58
2023/06/29 00:08:27;;;;;;;3.30;2.85;;;;;;;;;;5067472;28;20275;-57
2023/06/29 00:10:52;;;;;;;3.10;2.67;;;;;;;;;;5039570;28;20198;-57
2023/06/29 00:13:18;;;;;;;4.38;2.90;;;;;;;;;;5048160;28;20166;-60
2023/06/29 00:15:43;;;;;;;3.60;2.90;;;;;;;;;;5069026;28;20184;-57
2023/06/29 00:18:09;;;;;;;3.67;2.97;;;;;;;;;;5067273;28;20036;-57
2023/06/29 00:20:35;;;;;;;4.35;3.00;;;;;;;;;;5067563;28;20048;-57
2023/06/29 00:23:01;;;;;;;3.53;2.85;;;;;;;;;;5077426;22;20033;-58
2023/06/29 00:25:26;;;;;;;3.55;2.85;;;;;;;;;;5055729;28;20041;-59
2023/06/29 00:27:51;;;;;;;3.67;3.00;;;;;;;;;;5047639;28;20470;-57
2023/06/29 00:30:17;;;;;;;3.93;3.20;;;;;;;;;;5063351;28;20505;-58
2023/06/29 00:32:42;;;;;;;3.92;3.03;;;;;;;;;;5062562;28;20090;-58
2023/06/29 00:35:08;;;;;;;4.33;3.10;;;;;;;;;;5054563;28;20033;-57
2023/06/29 00:37:33;;;;;;;4.43;3.25;;;;;;;;;;5055049;28;20377;-57
2023/06/29 00:39:58;;;;;;;3.73;3.20;;;;;;;;;;5055374;28;20063;-59
2023/06/29 00:42:23;;;;;;;3.67;3.27;;;;;;;;;;5066437;28;20279;-56
2023/06/29 00:44:49;;;;;;;3.92;3.20;;;;;;;;;;5049851;28;20349;-56
2023/06/29 00:47:14;;;;;;;4.35;3.13;;;;;;;;;;5063392;28;20032;-58
2023/06/29 00:49:40;;;;;;;3.85;3.25;;;;;;;;;;5065812;28;20124;-57
2023/06/29 00:52:05;;;;;;;4.20;3.53;;;;;;;;;;5047679;28;20033;-57
2023/06/29 00:54:30;;;;;;;4.18;3.40;;;;;;;;;;5062437;28;20045;-58
2023/06/29 00:56:58;;;;;;;4.63;3.40;;;;;;;;;;5055702;28;20394;-58
2023/06/29 00:59:24;;;;;;;4.05;3.00;;;;;;;;;;5046743;28;20851;-56
2023/06/29 01:01:49;;;;;;;5.60;3.30;;;;;;;;;;5066698;28;20040;-58
2023/06/29 01:04:17;;;;;;;4.80;2.95;;;;;;;;;;5066191;28;20467;-57
2023/06/29 01:06:45;;;;;;;4.63;3.30;;;;;;;;;;5064449;28;20146;-57
2023/06/29 01:09:10;;;;;;;3.40;2.92;;;;;;;;;;5057538;28;20529;-59
2023/06/29 01:11:35;;;;;;;6.38;3.20;;;;;;;;;;5041648;28;20442;-57
2023/06/29 01:14:01;;;;;;;5.05;3.30;;;;;;;;;;5058501;28;20473;-58
2023/06/29 01:16:26;;;;;;;3.45;2.90;;;;;;;;;;5039147;28;20044;-60
2023/06/29 01:18:51;;;;;;;4.13;3.03;;;;;;;;;;5049868;28;20025;-58
2023/06/29 01:21:16;;;;;;;4.17;3.40;;;;;;;;;;5060592;28;20274;-57
2023/06/29 01:23:42;;;;;;;3.93;3.10;;;;;;;;;;5060388;28;20848;-57
2023/06/29 01:26:07;;;;;;;4.00;3.40;;;;;;;;;;5055133;28;20287;-59
2023/06/29 01:28:38;;;;;;;4.30;3.30;;;;;;;;;;5060956;28;20063;-55
2023/06/29 01:31:04;;;;;;;4.70;3.05;;;;;;;;;;5054867;28;20131;-56
2023/06/29 01:33:29;;;;;;;4.18;3.40;;;;;;;;;;5059709;28;20112;-56
2023/06/29 01:35:57;;;;;;;4.17;3.40;;;;;;;;;;5054590;28;20045;-57
2023/06/29 01:38:32;;;;;;;5.30;3.03;;;;;;;;;;5062501;28;20040;-57
2023/06/29 01:40:57;;;;;;;5.47;3.67;;;;;;;;;;5055000;28;20548;-56
2023/06/29 01:43:24;;;;;;;4.30;3.40;;;;;;;;;;5063753;28;20048;-57
2023/06/29 01:45:49;;;;;;;3.85;3.20;;;;;;;;;;5060243;28;20490;-60
2023/06/29 01:48:15;;;;;;;4.93;3.63;;;;;;;;;;5064317;28;20044;-59
2023/06/29 01:50:40;;;;;;;4.25;3.15;;;;;;;;;;5058818;28;20719;-56
2023/06/29 01:53:05;;;;;;;4.87;3.10;;;;;;;;;;5063854;28;20037;-58
2023/06/29 01:55:31;;;;;;;5.03;3.90;;;;;;;;;;5055168;28;20393;-57
2023/06/29 01:57:56;;;;;;;3.80;3.23;;;;;;;;;;5068933;28;20056;-56
2023/06/29 02:00:21;;;;;;;5.65;3.80;;;;;;;;;;5048958;28;20279;-58
2023/06/29 02:02:46;;;;;;;4.00;3.60;;;;;;;;;;5061696;28;20112;-58
2023/06/29 02:05:12;;;;;;;4.80;3.60;;;;;;;;;;5054128;28;20063;-57
2023/06/29 02:07:37;;;;;;;4.82;3.83;;;;;;;;;;5056520;28;20299;-57
2023/06/29 02:10:02;;;;;;;5.13;4.03;;;;;;;;;;5045636;28;20123;-58
2023/06/29 02:12:28;;;;;;;5.57;3.63;;;;;;;;;;5058451;28;20291;-57
2023/06/29 02:14:53;;;;;;;5.07;3.93;;;;;;;;;;5055870;28;20029;-60
2023/06/29 02:17:18;;;;;;;4.60;3.80;;;;;;;;;;5062329;28;20037;-57
2023/06/29 02:19:43;;;;;;;4.87;4.20;;;;;;;;;;5049795;28;20351;-58
2023/06/29 02:22:09;;;;;;;4.80;3.85;;;;;;;;;;5061324;28;20711;-58
2023/06/29 02:24:34;;;;;;;5.10;3.95;;;;;;;;;;5064403;28;20059;-58
2023/06/29 02:26:59;;;;;;;6.30;4.50;;;;;;;;;;5057321;28;20127;-57
2023/06/29 02:29:25;;;;;;;6.03;4.40;;;;;;;;;;5049134;28;20416;-57
2023/06/29 02:31:50;;;;;;;5.35;4.22;;;;;;;;;;5056032;28;20456;-60
2023/06/29 02:34:15;;;;;;;7.13;3.90;;;;;;;;;;5056087;28;20098;-60
2023/06/29 02:36:41;;;;;;;4.38;3.83;;;;;;;;;;5057897;28;20840;-58
2023/06/29 02:39:07;;;;;;;6.00;4.05;;;;;;;;;;5046977;28;20041;-59
2023/06/29 02:41:32;;;;;;;5.80;3.90;;;;;;;;;;5056046;28;20032;-58
2023/06/29 02:43:57;;;;;;;4.67;3.80;;;;;;;;;;5043917;28;20189;-58
2023/06/29 02:46:23;;;;;;;4.68;3.47;;;;;;;;;;5052188;28;20800;-57
2023/06/29 02:48:48;;;;;;;6.50;3.88;;;;;;;;;;5054560;28;20044;-58
2023/06/29 02:51:13;;;;;;;4.70;3.73;;;;;;;;;;5072237;28;20029;-57
2023/06/29 02:53:38;;;;;;;4.70;3.90;;;;;;;;;;5063300;28;20286;-56
2023/06/29 02:56:03;;;;;;;5.63;4.20;;;;;;;;;;5061940;28;20302;-56
2023/06/29 02:58:29;;;;;;;5.43;4.15;;;;;;;;;;5058211;28;20785;-57
2023/06/29 03:00:54;;;;;;;4.57;4.00;;;;;;;;;;5063275;28;20202;-56
2023/06/29 03:03:20;;;;;;;5.78;4.47;;;;;;;;;;5067120;28;20436;-56
2023/06/29 03:05:45;;;;;;;4.00;3.55;;;;;;;;;;5060449;28;20048;-60
2023/06/29 03:08:10;;;;;;;5.23;4.00;;;;;;;;;;5056917;28;20592;-56
2023/06/29 03:10:35;;;;;;;5.17;4.20;;;;;;;;;;5047197;28;20337;-57
2023/06/29 03:13:01;;;;;;;6.40;4.30;;;;;;;;;;5060410;28;20282;-58
2023/06/29 03:15:26;;;;;;;4.73;3.63;;;;;;;;;;5060872;28;20282;-58
2023/06/29 03:17:51;;;;;;;5.83;4.10;;;;;;;;;;5059285;28;20293;-58
2023/06/29 03:20:17;;;;;;;4.90;4.00;;;;;;;;;;5061601;28;20283;-58
2023/06/29 03:22:42;;;;;;;4.78;3.80;;;;;;;;;;5059152;28;20291;-58
2023/06/29 03:25:08;;;;;;;4.90;3.83;;;;;;;;;;5044329;28;20560;-57
2023/06/29 03:27:33;;;;;;;5.03;4.28;;;;;;;;;;5065612;28;20067;-57
2023/06/29 03:29:58;;;;;;;6.43;4.22;;;;;;;;;;5063841;28;20056;-57
2023/06/29 03:32:24;;;;;;;5.27;4.00;;;;;;;;;;5045175;28;20485;-57
2023/06/29 03:34:49;;;;;;;5.97;4.17;;;;;;;;;;5057374;28;20653;-57
2023/06/29 03:37:14;;;;;;;5.90;4.47;;;;;;;;;;5053662;28;20290;-59
2023/06/29 03:39:39;;;;;;;5.80;4.23;;;;;;;;;;5056072;28;20289;-58
2023/06/29 03:42:05;;;;;;;6.00;4.30;;;;;;;;;;5055752;28;20315;-58
2023/06/29 03:44:30;;;;;;;5.50;4.32;;;;;;;;;;5061973;28;21051;-58
2023/06/29 03:46:56;;;;;;;6.33;4.37;;;;;;;;;;5046244;28;20072;-58
2023/06/29 03:49:21;;;;;;;7.00;4.77;;;;;;;;;;5063272;28;20279;-58
2023/06/29 03:51:46;;;;;;;6.15;5.07;;;;;;;;;;5062711;28;20289;-58
2023/06/29 03:54:11;;;;;;;7.27;4.67;;;;;;;;;;5062179;28;20028;-57
2023/06/29 03:56:36;;;;;;;5.90;4.60;;;;;;;;;;5056871;28;20802;-57
2023/06/29 03:59:02;;;;;;;6.20;4.63;;;;;;;;;;5059219;28;20737;-59
2023/06/29 04:01:27;;;;;;;6.05;4.88;;;;;;;;;;5055757;28;20344;-57
2023/06/29 04:03:53;;;;;;;5.40;4.40;;;;;;;;;;5067508;28;20437;-56
2023/06/29 04:06:18;;;;;;;6.35;4.75;;;;;;;;;;5054911;28;20337;-57
2023/06/29 04:08:43;;;;;;;8.13;5.05;;;;;;;;;;5055959;28;20040;-58
2023/06/29 04:11:09;;;;;;;6.87;5.00;;;;;;;;;;5061845;28;20033;-56
2023/06/29 04:13:34;;;;;;;9.57;4.82;;;;;;;;;;5050345;28;20767;-57
2023/06/29 04:16:00;;;;;;;6.18;5.15;;;;;;;;;;5061998;28;20039;-58
2023/06/29 04:18:25;;;;;;;6.07;5.07;;;;;;;;;;5058922;28;20032;-64
2023/06/29 04:20:51;;;;;;;5.93;5.33;;;;;;;;;;5055743;28;20276;-58
2023/06/29 04:23:16;;;;;;;6.05;4.75;;;;;;;;;;5050511;28;20307;-56
2023/06/29 04:25:42;;;;;;;6.20;5.10;;;;;;;;;;5061579;28;20184;-58
2023/06/29 04:28:08;;;;;;;7.15;5.80;;;;;;;;;;5047829;28;20439;-58
2023/06/29 04:30:35;;;;;;;9.80;5.65;;;;;;;;;;5051226;28;20041;-57
2023/06/29 04:33:09;;;;;;;7.25;5.35;;;;;;;;;;5058155;28;20139;-57
2023/06/29 04:35:35;;;;;;;8.75;5.90;;;;;;;;;;5063290;23;20047;-57
2023/06/29 04:38:01;;;;;;;7.28;5.70;;;;;;;;;;5029282;28;20033;-58
2023/06/29 04:40:26;;;;;;;8.52;5.88;;;;;;;;;;5033135;28;20378;-58
2023/06/29 04:42:55;;;;;;;8.10;6.00;;;;;;;;;;5030119;28;20044;-58
2023/06/29 04:45:20;;;;;;;8.02;5.80;;;;;;;;;;5031488;28;20057;-59
2023/06/29 04:47:46;;;;;;;7.65;6.07;;;;;;;;;;5031221;28;20395;-58
2023/06/29 04:50:11;;;;;;;7.68;6.20;;;;;;;;;;5047688;28;20457;-57
2023/06/29 04:52:36;;;;;;;7.47;6.28;;;;;;;;;;5032217;28;20473;-57
2023/06/29 04:57:35;;;;;;;8.45;6.03;;;;;;;;;;5026601;28;20190;-56
2023/06/29 05:00:01;;;;;;;7.38;6.43;;;;;;;;;;5013616;28;20124;-57
2023/06/29 05:02:26;;;;;;;9.73;6.43;;;;;;;;;;5013440;28;20037;-58
2023/06/29 05:04:52;;;;;;;10.10;6.63;;;;;;;;;;5030628;28;20843;-57
2023/06/29 05:07:17;;;;;;;8.93;6.85;;;;;;;;;;5030194;28;20102;-57
2023/06/29 05:09:42;;;;;;;8.37;6.70;;;;;;;;;;5046244;28;20037;-58
2023/06/29 05:12:09;;;;;;;9.57;6.60;;;;;;;;;;5033060;28;20451;-60
2023/06/29 05:14:34;;;;;;;9.73;6.72;;;;;;;;;;5044587;28;20288;-58
2023/06/29 05:16:59;;;;;;;8.10;6.82;;;;;;;;;;5012661;28;20478;-57
2023/06/29 05:19:24;;;;;;;9.20;7.70;;;;;;;;;;5030592;28;20048;-60
2023/06/29 05:21:50;;;;;;;7.87;6.60;;;;;;;;;;5012307;28;20345;-58
2023/06/29 05:24:15;;;;;;;8.17;6.00;;;;;;;;;;5029590;28;20552;-57
2023/06/29 05:26:40;;;;;;;7.60;6.30;;;;;;;;;;5012486;28;20060;-59
2023/06/29 05:29:06;;;;;;;7.88;6.32;;;;;;;;;;5012124;28;20037;-58
2023/06/29 05:31:31;;;;;;;8.27;6.63;;;;;;;;;;4993582;28;20068;-58
2023/06/29 05:33:56;;;;;;;7.70;6.37;;;;;;;;;;5012035;28;20100;-59
2023/06/29 05:36:21;;;;;;;7.40;6.27;;;;;;;;;;5029885;28;20292;-59
2023/06/29 05:38:47;;;;;;;7.60;6.25;;;;;;;;;;5046216;28;20288;-58
2023/06/29 05:41:12;;;;;;;7.30;6.20;;;;;;;;;;5029805;28;20044;-57
2023/06/29 05:43:37;;;;;;;7.10;6.03;;;;;;;;;;5030569;28;20311;-57
2023/06/29 05:46:03;;;;;;;6.93;6.00;;;;;;;;;;5012996;28;20364;-59
2023/06/29 05:48:28;;;;;;;7.57;6.23;;;;;;;;;;5031572;28;20052;-59
2023/06/29 05:50:53;;;;;;;6.90;5.88;;;;;;;;;;5029780;28;20292;-59
2023/06/29 05:53:19;;;;;;;8.30;6.25;;;;;;;;;;5011759;28;20433;-58
2023/06/29 05:55:44;;;;;;;8.50;6.20;;;;;;;;;;5030211;28;20041;-61
2023/06/29 05:58:09;;;;;;;7.27;5.97;;;;;;;;;;5011711;28;20498;-60
2023/06/29 06:00:34;;;;;;;6.67;5.40;;;;;;;;;;5029926;28;20314;-57
2023/06/29 06:03:00;;;;;;;7.00;6.13;;;;;;;;;;5029013;28;20303;-59
2023/06/29 06:05:25;;;;;;;6.63;5.83;;;;;;;;;;5028244;28;20315;-58
2023/06/29 06:07:50;;;;;;;7.33;5.97;;;;;;;;;;5027764;28;20038;-57
2023/06/29 06:10:15;;;;;;;9.57;5.75;;;;;;;;;;5029387;28;20291;-57
2023/06/29 06:12:41;;;;;;;6.70;5.73;;;;;;;;;;5029987;28;20462;-57
2023/06/29 06:15:08;;;;;;;6.70;6.00;;;;;;;;;;5011527;28;20287;-57
2023/06/29 06:17:33;;;;;;;7.03;5.25;;;;;;;;;;5013025;28;20296;-58
2023/06/29 06:19:58;;;;;;;7.57;5.87;;;;;;;;;;5028845;28;20418;-60
2023/06/29 06:22:24;;;;;;;8.80;5.87;;;;;;;;;;5028048;28;20579;-56
2023/06/29 06:24:49;;;;;;;6.43;5.60;;;;;;;;;;5009911;28;20410;-57
2023/06/29 06:27:14;;;;;;;8.27;5.50;;;;;;;;;;5010505;28;20132;-57
2023/06/29 06:29:39;;;;;;;11.90;6.50;;;;;;;;;;5028878;28;20112;-56
2023/06/29 06:32:05;;;;;;;9.17;5.90;;;;;;;;;;5029176;28;20045;-59
2023/06/29 06:34:30;;;;;;;8.82;5.72;;;;;;;;;;5029266;28;20614;-57
2023/06/29 06:36:56;;;;;;;7.53;6.03;;;;;;;;;;5029484;28;20539;-56
2023/06/29 06:39:22;;;;;;;7.63;5.90;;;;;;;;;;5027692;28;20048;-57
2023/06/29 06:41:47;;;;;;;7.40;5.10;;;;;;;;;;5028820;28;20041;-57
2023/06/29 06:44:12;;;;;;;7.15;5.78;;;;;;;;;;5029368;28;20052;-56
2023/06/29 06:46:37;;;;;;;9.23;5.87;;;;;;;;;;4991847;28;20538;-59
2023/06/29 06:49:02;;;;;;;9.27;5.57;;;;;;;;;;5028805;28;20283;-58
2023/06/29 06:51:28;;;;;;;5.67;4.70;;;;;;;;;;5011822;28;20045;-61
2023/06/29 06:53:56;;;;;;;6.57;5.07;;;;;;;;;;5028311;28;20116;-58
2023/06/29 06:56:24;;;;;;;5.78;5.18;;;;;;;;;;5044466;28;20299;-57
2023/06/29 06:58:50;;;;;;;6.90;4.75;;;;;;;;;;5034284;28;20116;-59
2023/06/29 07:01:20;;;;;;;7.13;5.20;;;;;;;;;;5039036;28;20187;-58
2023/06/29 07:03:45;;;;;;;7.72;5.07;;;;;;;;;;5036453;28;20036;-58
2023/06/29 07:06:10;;;;;;;6.27;5.27;;;;;;;;;;5020410;28;20037;-58
2023/06/29 07:08:36;;;;;;;8.53;5.03;;;;;;;;;;5035104;28;20271;-58
2023/06/29 07:11:01;;;;;;;7.47;5.57;;;;;;;;;;5047021;28;20445;-57
2023/06/29 07:13:26;;;;;;;5.20;4.70;;;;;;;;;;5042593;28;20314;-57
2023/06/29 07:15:52;;;;;;;8.60;5.37;;;;;;;;;;5042336;28;20013;-57
2023/06/29 07:18:17;;;;;;;6.97;5.07;;;;;;;;;;5015007;28;20028;-59
2023/06/29 07:20:42;;;;;;;6.00;4.77;;;;;;;;;;5027615;28;20279;-56
2023/06/29 07:23:08;;;;;;;5.80;4.75;;;;;;;;;;5027484;28;20279;-60
2023/06/29 07:25:33;;;;;;;6.03;4.53;;;;;;;;;;5031158;28;20075;-60
2023/06/29 07:27:58;;;;;;;7.37;5.40;;;;;;;;;;5029955;28;20275;-59
2023/06/29 07:30:24;;;;;;;6.20;4.90;;;;;;;;;;5032101;28;20318;-57
2023/06/29 07:32:49;;;;;;;4.43;3.80;;;;;;;;;;5010971;28;20447;-61
2023/06/29 07:35:14;;;;;;;6.23;4.23;;;;;;;;;;5028874;28;20026;-58
2023/06/29 07:37:40;;;;;;;6.03;4.10;;;;;;;;;;5028573;28;20382;-57
2023/06/29 07:40:05;;;;;;;6.73;3.90;;;;;;;;;;5028683;28;21661;-59
2023/06/29 07:42:30;;;;;;;6.40;4.00;;;;;;;;;;5027579;28;20272;-57
2023/06/29 07:44:56;;;;;;;6.60;4.40;;;;;;;;;;5026503;28;20490;-58
2023/06/29 07:47:21;;;;;;;4.57;3.77;;;;;;;;;;5026734;28;22010;-59
2023/06/29 07:49:46;;;;;;;5.32;4.47;;;;;;;;;;5009842;28;20025;-59
2023/06/29 07:52:12;;;;;;;6.00;4.03;;;;;;;;;;5010093;28;20032;-57
2023/06/29 07:54:37;;;;;;;5.97;4.37;;;;;;;;;;5029182;28;20275;-57
2023/06/29 07:57:02;;;;;;;5.00;3.83;;;;;;;;;;5027177;28;20151;-57
2023/06/29 07:59:28;;;;;;;6.60;3.78;;;;;;;;;;5031230;28;20482;-60
2023/06/29 08:01:53;;;;;;;5.32;3.72;;;;;;;;;;5011045;28;20017;-59
2023/06/29 08:04:18;;;;;;;6.47;3.85;;;;;;;;;;5028795;28;20526;-59
2023/06/29 08:06:43;;;;;;;5.23;3.57;;;;;;;;;;5031998;28;20125;-58
2023/06/29 08:09:09;;;;;;;4.57;3.27;;;;;;;;;;5032030;28;20276;-59
2023/06/29 08:11:34;;;;;;;4.07;2.80;;;;;;;;;;5030421;28;20113;-58
2023/06/29 08:14:00;;;;;;;5.17;3.03;;;;;;;;;;5016608;28;20051;-58
2023/06/29 08:16:25;;;;;;;5.95;2.85;;;;;;;;;;5031418;28;20021;-59
2023/06/29 08:18:50;;;;;;;3.80;2.58;;;;;;;;;;5030374;28;20364;-57
2023/06/29 08:21:15;;;;;;;4.77;3.17;;;;;;;;;;5026555;28;20032;-57
2023/06/29 08:23:41;;;;;;;4.30;2.70;;;;;;;;;;5028227;28;20758;-57
2023/06/29 08:26:06;;;;;;;3.27;2.43;;;;;;;;;;5028367;28;20267;-58
2023/06/29 08:28:31;;;;;;;4.73;3.03;;;;;;;;;;5032015;28;20247;-58
2023/06/29 08:30:56;;;;;;;4.82;2.55;;;;;;;;;;5036018;28;20018;-58
2023/06/29 08:33:23;;;;;;;3.63;2.90;;;;;;;;;;5042277;28;20862;-57
2023/06/29 08:35:49;;;;;;;3.53;2.83;;;;;;;;;;5039665;28;20037;-57
2023/06/29 08:38:14;;;;;;;4.63;2.75;;;;;;;;;;5036221;28;20012;-59
2023/06/29 08:40:39;;;;;;;3.33;2.50;;;;;;;;;;5026800;28;20824;-57
2023/06/29 08:43:04;;;;;;;5.30;2.87;;;;;;;;;;5027560;28;20649;-58
2023/06/29 08:45:30;;;;;;;4.63;2.97;;;;;;;;;;5031729;28;20029;-58
2023/06/29 08:47:55;;;;;;;4.80;2.80;;;;;;;;;;5012898;28;20275;-58
2023/06/29 08:50:21;;;;;;;4.90;2.70;;;;;;;;;;5027437;28;20260;-57
2023/06/29 08:52:47;;;;;;;4.03;2.65;;;;;;;;;;5030091;28;20096;-57
2023/06/29 08:55:12;;;;;;;3.90;2.90;;;;;;;;;;5039033;28;20111;-57
2023/06/29 08:57:38;;;;;;;5.30;2.87;;;;;;;;;;5028797;28;22810;-59
2023/06/29 09:00:04;;;;;;;5.00;2.58;;;;;;;;;;5033304;28;20322;-58
2023/06/29 09:02:29;;;;;;;3.10;2.40;;;;;;;;;;5008314;28;20037;-59
2023/06/29 09:04:55;;;;;;;2.77;2.43;;;;;;;;;;5014219;28;20052;-58
2023/06/29 09:07:20;;;;;;;4.35;2.40;;;;;;;;;;5044895;28;20473;-57
2023/06/29 09:09:45;;;;;;;3.17;2.20;;;;;;;;;;5019855;28;20033;-57
2023/06/29 09:12:10;;;;;;;3.30;2.43;;;;;;;;;;5054031;28;21905;-58
2023/06/29 09:14:43;;;;;;;4.20;2.37;;;;;;;;;;5034164;28;20492;-57
2023/06/29 09:17:15;;;;;;;3.67;2.35;;;;;;;;;;5036151;28;20336;-60
2023/06/29 09:19:44;;;;;;;3.30;2.40;;;;;;;;;;5040205;28;20486;-59
2023/06/29 09:22:09;;;;;;;3.40;2.08;;;;;;;;;;5026405;28;20037;-58
2023/06/29 09:24:35;;;;;;;5.30;2.93;;;;;;;;;;5033272;28;20175;-59
2023/06/29 09:27:01;;;;;;;3.60;2.30;;;;;;;;;;5029501;28;20288;-59
2023/06/29 09:29:26;;;;;;;3.05;2.20;;;;;;;;;;5027914;28;20120;-59
2023/06/29 09:31:55;;;;;;;2.65;2.00;;;;;;;;;;5036336;28;20581;-59
2023/06/29 09:34:21;;;;;;;4.18;2.08;;;;;;;;;;5036807;28;20048;-58
2023/06/29 09:36:46;;;;;;;3.10;1.95;;;;;;;;;;5038089;28;20033;-62
2023/06/29 09:39:14;;;;;;;3.88;2.33;;;;;;;;;;5042270;28;20499;-57
2023/06/29 09:41:46;;;;;;;2.83;1.80;;;;;;;;;;5038373;28;20542;-56
2023/06/29 09:44:12;;;;;;;3.78;1.95;;;;;;;;;;5017988;28;20068;-56
2023/06/29 09:46:40;;;;;;;4.03;1.70;;;;;;;;;;5005859;28;20479;-57
2023/06/29 09:49:06;;;;;;;4.65;1.90;;;;;;;;;;5020126;28;20046;-56
2023/06/29 09:51:32;;;;;;;2.95;1.83;;;;;;;;;;5038250;28;20060;-58
2023/06/29 09:53:59;;;;;;;2.70;1.93;;;;;;;;;;5042353;28;20084;-58
2023/06/29 09:56:26;;;;;;;3.20;1.80;;;;;;;;;;5043494;28;20291;-56
2023/06/29 09:58:51;;;;;;;3.53;1.77;;;;;;;;;;5036129;28;20025;-57
2023/06/29 10:01:17;;;;;;;3.30;1.73;;;;;;;;;;5034687;28;20483;-59
2023/06/29 10:03:43;;;;;;;3.22;1.80;;;;;;;;;;5035702;28;20412;-59
2023/06/29 10:06:15;;;;;;;3.05;1.80;;;;;;;;;;5019394;28;20079;-57
2023/06/29 10:08:40;;;;;;;3.58;2.15;;;;;;;;;;5043493;28;20397;-57
2023/06/29 10:11:06;;;;;;;4.85;1.83;;;;;;;;;;5010783;28;20492;-58
2023/06/29 10:13:32;;;;;;;2.70;1.63;;;;;;;;;;5036182;28;20037;-56
2023/06/29 10:15:58;;;;;;;2.38;1.60;;;;;;;;;;5022934;28;20280;-58
2023/06/29 10:18:24;;;;;;;3.13;2.08;;;;;;;;;;5039401;28;20403;-57
2023/06/29 10:20:50;;;;;;;2.58;1.88;;;;;;;;;;5041294;28;20036;-57
2023/06/29 10:23:15;;;;;;;4.75;1.80;;;;;;;;;;5031774;28;20036;-57
2023/06/29 10:25:41;;;;;;;3.00;2.00;;;;;;;;;;5043259;28;20037;-56
2023/06/29 10:28:07;;;;;;;2.75;1.80;;;;;;;;;;5050936;28;20064;-57
2023/06/29 10:30:45;;;;;;;3.17;1.85;;;;;;;;;;5035125;28;20037;-58
2023/06/29 10:33:10;;;;;;;3.53;2.00;;;;;;;;;;5045685;28;20037;-58
2023/06/29 10:35:35;;;;;;;3.63;1.87;;;;;;;;;;5036781;28;20052;-57
2023/06/29 10:38:01;;;;;;;2.67;1.70;;;;;;;;;;5043209;28;20288;-59
2023/06/29 10:40:26;;;;;;;2.88;1.80;;;;;;;;;;5018509;28;20041;-57
2023/06/29 10:42:52;;;;;;;3.58;1.77;;;;;;;;;;5018584;28;20025;-58
2023/06/29 10:45:18;;;;;;;4.25;2.08;;;;;;;;;;5022201;28;20059;-58
2023/06/29 10:47:55;;;;;;;3.50;2.00;;;;;;;;;;5040375;28;20455;-58
2023/06/29 10:50:22;;;;;;;3.75;1.88;;;;;;;;;;5032558;28;20288;-59
2023/06/29 10:52:47;;;;;;;2.25;1.77;;;;;;;;;;5014704;28;20037;-59
2023/06/29 10:55:19;;;;;;;3.70;1.90;;;;;;;;;;5038272;28;20033;-62
2023/06/29 10:57:45;;;;;;;4.68;1.70;;;;;;;;;;5024510;28;20510;-60
2023/06/29 11:00:11;;;;;;;2.38;1.40;;;;;;;;;;5041166;28;20040;-58
2023/06/29 11:02:36;;;;;;;2.30;1.33;;;;;;;;;;5054067;28;20037;-58
2023/06/29 11:05:01;;;;;;;2.47;1.75;;;;;;;;;;5015837;28;20153;-60
2023/06/29 11:07:26;;;;;;;2.40;1.80;;;;;;;;;;5036431;28;20040;-57
2023/06/29 11:10:01;;;;;;;3.47;1.77;;;;;;;;;;5024567;28;20961;-58
2023/06/29 11:12:26;;;;;;;2.85;1.60;;;;;;;;;;5037958;28;20103;-59
2023/06/29 11:14:52;;;;;;;2.87;1.70;;;;;;;;;;5041202;28;20037;-57
2023/06/29 11:17:17;;;;;;;3.73;1.83;;;;;;;;;;5038242;28;20800;-57
2023/06/29 11:19:45;;;;;;;3.10;1.80;;;;;;;;;;5035351;28;20525;-60
2023/06/29 11:22:10;;;;;;;4.20;1.90;;;;;;;;;;5020511;28;20548;-58
2023/06/29 11:24:36;;;;;;;2.70;1.43;;;;;;;;;;5036040;28;20071;-58
2023/06/29 11:27:02;;;;;;;2.42;1.45;;;;;;;;;;5042165;28;20789;-58
2023/06/29 11:29:28;;;;;;;2.58;1.60;;;;;;;;;;5028582;28;20042;-57
2023/06/29 11:31:53;;;;;;;3.22;1.85;;;;;;;;;;5034973;28;20723;-58
2023/06/29 11:34:18;;;;;;;3.27;1.73;;;;;;;;;;5025170;28;20060;-58
2023/06/29 11:36:46;;;;;;;2.45;1.60;;;;;;;;;;5038701;28;20343;-59
2023/06/29 11:39:12;;;;;;;2.15;1.73;;;;;;;;;;5026276;28;20037;-59
2023/06/29 11:41:38;;;;;;;3.22;1.80;;;;;;;;;;5046960;28;20049;-59
2023/06/29 11:44:03;;;;;;;2.80;1.88;;;;;;;;;;5029941;28;20057;-59
2023/06/29 11:46:33;;;;;;;3.13;1.45;;;;;;;;;;5039940;28;20013;-58
2023/06/29 11:48:58;;;;;;;3.58;1.65;;;;;;;;;;5039857;28;20481;-60
2023/06/29 11:51:26;;;;;;;2.67;1.60;;;;;;;;;;5010845;28;20031;-57
2023/06/29 11:53:52;;;;;;;3.25;1.50;;;;;;;;;;5034521;28;20298;-59
2023/06/29 11:56:33;;;;;;;2.58;1.50;;;;;;;;;;5018903;28;20080;-60
2023/06/29 11:59:03;;;;;;;2.72;1.77;;;;;;;;;;5034295;28;20044;-60
2023/06/29 12:01:28;;;;;;;;;;;;;;;;;;5010371;28;20032;-60
2023/06/29 12:03:53;;;;;;;4.23;1.70;;;;;;;;;;5032589;28;19952;-59
2023/06/29 12:06:18;;;;;;;3.03;1.50;;;;;;;;;;5035584;28;20565;-58
2023/06/29 12:08:45;;;;;;;1.97;1.50;;;;;;;;;;5052658;28;20506;-56
2023/06/29 12:11:14;;;;;;;2.97;1.75;;;;;;;;;;5019810;28;20037;-57
2023/06/29 12:13:42;;;;;;;2.70;1.60;;;;;;;;;;5022942;28;20401;-59
2023/06/29 12:16:09;;;;;;;2.85;1.63;;;;;;;;;;5039918;28;20041;-59
2023/06/29 12:18:34;;;;;;;2.58;1.63;;;;;;;;;;5033981;28;20139;-57
2023/06/29 12:21:00;;;;;;;2.83;1.63;;;;;;;;;;5044250;28;20196;-57
2023/06/29 12:23:25;;;;;;;2.20;1.45;;;;;;;;;;5035646;28;20866;-58
2023/06/29 12:25:51;;;;;;;2.35;1.65;;;;;;;;;;5022371;28;20112;-60
2023/06/29 12:28:16;;;;;;;1.93;1.60;;;;;;;;;;5036090;28;20025;-57
2023/06/29 12:30:41;;;;;;;2.22;1.20;;;;;;;;;;5040299;28;20406;-57
2023/06/29 12:33:07;;;;;;;2.35;1.50;;;;;;;;;;5032596;28;20060;-59
2023/06/29 12:35:33;;;;;;;2.38;1.20;;;;;;;;;;5038046;28;20045;-60
2023/06/29 12:37:58;;;;;;;2.20;1.40;;;;;;;;;;5040141;28;20029;-58
2023/06/29 12:40:23;;;;;;;2.80;1.37;;;;;;;;;;5002400;28;20142;-59
2023/06/29 12:42:49;;;;;;;2.22;1.35;;;;;;;;;;5033492;28;20056;-57
2023/06/29 12:45:14;;;;;;;2.83;1.50;;;;;;;;;;5027484;28;20106;-58
2023/06/29 12:47:41;;;;;;;2.87;1.73;;;;;;;;;;5009329;28;20301;-65
2023/06/29 12:50:06;;;;;;;2.65;1.40;;;;;;;;;;5039707;28;20045;-59
2023/06/29 12:52:32;;;;;;;2.10;1.40;;;;;;;;;;5016242;28;20201;-57
2023/06/29 12:54:57;;;;;;;3.00;1.70;;;;;;;;;;5062038;28;20028;-59
2023/06/29 12:57:25;;;;;;;3.33;1.73;;;;;;;;;;5010512;28;20640;-59
2023/06/29 12:59:51;;;;;;;3.03;1.80;;;;;;;;;;5019870;28;20171;-57
2023/06/29 13:02:16;;;;;;;3.10;1.70;;;;;;;;;;5030376;28;20112;-56
2023/06/29 13:04:41;;;;;;;3.93;1.83;;;;;;;;;;5034023;28;20586;-57
2023/06/29 13:07:07;;;;;;;3.70;1.90;;;;;;;;;;5036452;28;20329;-61
2023/06/29 13:09:38;;;;;;;3.28;1.60;;;;;;;;;;5030618;28;20048;-58
2023/06/29 13:12:03;;;;;;;2.72;1.70;;;;;;;;;;5034966;28;20041;-59
2023/06/29 13:14:29;;;;;;;1.98;1.27;;;;;;;;;;5019769;28;20046;-59
2023/06/29 13:16:56;;;;;;;3.10;1.58;;;;;;;;;;5039234;28;20411;-58
2023/06/29 13:19:21;;;;;;;2.67;1.52;;;;;;;;;;5051345;28;20032;-57
2023/06/29 13:21:46;;;;;;;3.60;1.80;;;;;;;;;;5029403;28;20037;-58
2023/06/29 13:24:11;;;;;;;3.03;1.80;;;;;;;;;;5030940;28;21062;-59
2023/06/29 13:26:37;;;;;;;3.40;1.90;;;;;;;;;;5030368;28;20084;-58
2023/06/29 13:29:02;;;;;;;1.83;1.35;;;;;;;;;;5030804;28;20069;-57
2023/06/29 13:31:28;;;;;;;2.08;1.55;;;;;;;;;;5014099;28;20044;-58
2023/06/29 13:33:53;;;;;;;3.63;1.40;;;;;;;;;;5029181;28;20029;-59
2023/06/29 13:36:18;;;;;;;2.40;1.50;;;;;;;;;;4994350;28;20040;-60
2023/06/29 13:38:44;;;;;;;2.60;1.80;;;;;;;;;;5032186;28;20307;-59
2023/06/29 13:41:09;;;;;;;3.10;1.52;;;;;;;;;;5016324;28;20107;-58
2023/06/29 13:43:34;;;;;;;2.23;1.37;;;;;;;;;;5029277;28;20117;-59
2023/06/29 13:46:00;;;;;;;2.30;1.33;;;;;;;;;;5028076;28;20276;-59
2023/06/29 13:48:25;;;;;;;2.50;1.67;;;;;;;;;;5029109;28;20037;-57
2023/06/29 13:50:51;;;;;;;2.35;1.50;;;;;;;;;;5030526;28;20315;-59
2023/06/29 13:53:17;;;;;;;2.22;1.40;;;;;;;;;;5028991;28;20113;-60
2023/06/29 13:55:45;;;;;;;3.22;1.80;;;;;;;;;;5032119;28;20087;-57
2023/06/29 13:58:11;;;;;;;2.95;1.48;;;;;;;;;;5032645;28;20404;-59
2023/06/29 14:00:36;;;;;;;2.88;1.75;;;;;;;;;;5030272;28;20029;-60
2023/06/29 14:03:02;;;;;;;3.20;1.67;;;;;;;;;;5029339;28;20660;-59
2023/06/29 14:05:28;;;;;;;1.73;1.40;;;;;;;;;;5033191;28;20048;-58
2023/06/29 14:07:53;;;;;;;2.90;1.27;;;;;;;;;;5028651;28;20033;-60
2023/06/29 14:10:19;;;;;;;2.80;1.25;;;;;;;;;;5011821;28;20455;-58
2023/06/29 14:12:44;;;;;;;2.23;1.53;;;;;;;;;;5011921;28;20562;-58
2023/06/29 14:15:09;;;;;;;2.17;1.38;;;;;;;;;;5028501;28;20293;-59
2023/06/29 14:17:35;;;;;;;2.33;1.45;;;;;;;;;;5028018;28;20578;-57
2023/06/29 14:20:00;;;;;;;2.30;1.50;;;;;;;;;;5012184;28;20040;-58
2023/06/29 14:22:25;;;;;;;2.90;1.73;;;;;;;;;;5030596;28;20402;-59
2023/06/29 14:24:51;;;;;;;2.13;1.55;;;;;;;;;;5044551;28;20719;-59
2023/06/29 14:27:17;;;;;;;2.17;1.50;;;;;;;;;;5034916;28;20111;-59
2023/06/29 14:29:42;;;;;;;2.58;1.70;;;;;;;;;;5040923;28;20037;-59
2023/06/29 14:32:07;;;;;;;3.15;1.83;;;;;;;;;;5036384;28;20440;-58
2023/06/29 14:34:33;;;;;;;2.43;1.60;;;;;;;;;;5039984;28;20095;-60
2023/06/29 14:36:58;;;;;;;2.25;1.60;;;;;;;;;;5037984;28;20287;-57